Time;durP1;ratioP1;P1;durP2;ratioP2;P2;SDS_P1;SDS_P2;PMS_P1;PMS_P2;Temp;Humidity;BMP_temperature;BMP_pressure;BME280_temperature;BME280_humidity;BME280_pressure;Samples;Min_cycle;Max_cycle;Signal;HPM_P1;HPM_P2
2020/12/23 00:02:23;;;;;;;;;;;28.60;41.70;;;;;;5078937;28;19916;-61
2020/12/23 00:04:49;;;;;;;;;;;28.70;41.60;;;;;;5073047;28;19912;-61
2020/12/23 00:07:15;;;;;;;;;;;28.70;41.80;;;;;;5072950;28;19908;-61
2020/12/23 00:09:43;;;;;;;;;;;28.60;41.60;;;;;;5072952;28;19943;-61
2020/12/23 00:12:09;;;;;;;;;;;28.70;41.70;;;;;;5073208;28;19969;-61
2020/12/23 00:14:34;;;;;;;;;;;28.60;41.70;;;;;;5073180;28;20317;-61
2020/12/23 00:17:00;;;;;;;;;;;28.60;41.70;;;;;;5079579;28;20328;-61
2020/12/23 00:19:25;;;;;;;;;;;28.60;41.70;;;;;;5073066;28;19913;-61
2020/12/23 00:21:51;;;;;;;;;;;28.60;41.70;;;;;;5072831;28;20038;-61
2020/12/23 00:24:16;;;;;;;;;;;28.60;41.60;;;;;;5073113;28;19962;-61
2020/12/23 00:26:45;;;;;;;;;;;28.60;41.60;;;;;;5072858;28;20458;-62
2020/12/23 00:29:10;;;;;;;;;;;28.60;41.60;;;;;;5072946;28;19988;-61
2020/12/23 00:31:35;;;;;;;;;;;28.60;41.70;;;;;;5084251;28;20361;-61
2020/12/23 00:34:01;;;;;;;;;;;28.60;41.50;;;;;;5092963;28;19908;-61
2020/12/23 00:36:27;;;;;;;;;;;28.60;41.50;;;;;;5093070;28;19935;-61
2020/12/23 00:38:52;;;;;;;;;;;28.60;41.50;;;;;;5088763;28;19977;-61
2020/12/23 00:41:18;;;;;;;;;;;28.60;41.50;;;;;;5072564;28;19915;-61
2020/12/23 00:43:43;;;;;;;;;;;28.60;42.10;;;;;;5072789;28;19913;-61
2020/12/23 00:46:12;;;;;;;;;;;28.60;41.60;;;;;;5082495;28;19916;-61
2020/12/23 00:48:41;;;;;;;;;;;28.60;41.50;;;;;;5093030;28;19908;-61
2020/12/23 00:51:07;;;;;;;;;;;28.60;41.70;;;;;;5092718;28;19908;-61
2020/12/23 00:53:32;;;;;;;;;;;28.60;41.60;;;;;;5090362;28;20329;-61
2020/12/23 00:55:58;;;;;;;;;;;28.60;41.60;;;;;;5072787;28;19939;-61
2020/12/23 00:58:23;;;;;;;;;;;28.60;41.70;;;;;;5072577;28;19920;-61
2020/12/23 01:00:49;;;;;;;;;;;28.60;41.80;;;;;;5072732;28;20007;-61
2020/12/23 01:03:14;;;;;;;;;;;28.60;41.50;;;;;;5072548;28;19912;-61
2020/12/23 01:05:39;;;;;;;;;;;28.60;41.50;;;;;;5072338;28;19908;-61
2020/12/23 01:08:05;;;;;;;;;;;28.60;41.50;;;;;;5072266;28;19908;-61
2020/12/23 01:10:30;;;;;;;;;;;28.60;41.60;;;;;;5092698;28;20362;-61
2020/12/23 01:12:56;;;;;;;;;;;28.60;41.40;;;;;;5092677;28;19908;-61
2020/12/23 01:15:21;;;;;;;;;;;28.60;41.40;;;;;;5096408;28;19909;-61
2020/12/23 01:17:47;;;;;;;;;;;28.60;41.40;;;;;;5083654;28;20003;-61
2020/12/23 01:20:12;;;;;;;;;;;28.60;41.60;;;;;;5076025;28;20365;-61
2020/12/23 01:22:38;;;;;;;;;;;28.60;41.50;;;;;;5075845;28;19912;-61
2020/12/23 01:25:03;;;;;;;;;;;28.50;41.70;;;;;;5094646;28;19919;-61
2020/12/23 01:27:29;;;;;;;;;;;28.50;41.70;;;;;;5095939;28;19920;-61
2020/12/23 01:29:54;;;;;;;;;;;28.50;41.60;;;;;;5096323;28;19909;-61
2020/12/23 01:32:19;;;;;;;;;;;28.50;41.60;;;;;;5096303;28;20328;-61
2020/12/23 01:34:45;;;;;;;;;;;28.50;41.50;;;;;;5096083;28;19912;-61
2020/12/23 01:37:10;;;;;;;;;;;28.50;41.40;;;;;;5096132;28;19969;-61
2020/12/23 01:39:36;;;;;;;;;;;28.50;41.60;;;;;;5077906;28;19923;-61
2020/12/23 01:42:01;;;;;;;;;;;28.50;41.60;;;;;;5075587;28;19935;-61
2020/12/23 01:44:27;;;;;;;;;;;28.50;41.50;;;;;;5075780;28;19922;-61
2020/12/23 01:46:52;;;;;;;;;;;28.50;41.50;;;;;;5075787;28;19935;-61
2020/12/23 01:49:18;;;;;;;;;;;28.50;41.60;;;;;;5074483;28;20290;-61
2020/12/23 01:51:43;;;;;;;;;;;28.50;41.40;;;;;;5075358;28;19912;-61
2020/12/23 01:54:12;;;;;;;;;;;28.50;41.50;;;;;;5075796;28;19913;-61
2020/12/23 01:56:40;;;;;;;;;;;28.50;41.40;;;;;;5090691;28;20293;-61
2020/12/23 01:59:06;;;;;;;;;;;28.50;41.50;;;;;;5095893;28;19945;-61
2020/12/23 02:01:31;;;;;;;;;;;28.50;41.60;;;;;;5095523;28;19908;-61
2020/12/23 02:03:57;;;;;;;;;;;28.50;41.50;;;;;;5094632;28;19909;-61
2020/12/23 02:06:22;;;;;;;;;;;28.50;41.50;;;;;;5095423;28;20314;-61
2020/12/23 02:08:47;;;;;;;;;;;28.50;41.50;;;;;;5095209;28;19908;-61
2020/12/23 02:11:13;;;;;;;;;;;28.50;41.50;;;;;;5080359;28;19917;-61
2020/12/23 02:13:39;;;;;;;;;;;28.50;41.40;;;;;;5075336;28;20309;-61
2020/12/23 02:16:04;;;;;;;;;;;28.50;41.40;;;;;;5075106;28;19970;-61
2020/12/23 02:18:30;;;;;;;;;;;28.50;41.50;;;;;;5075018;28;19940;-61
2020/12/23 02:20:55;;;;;;;;;;;28.50;41.40;;;;;;5074819;28;20343;-61
2020/12/23 02:23:21;;;;;;;;;;;28.50;41.40;;;;;;5082817;28;19916;-61
2020/12/23 02:25:46;;;;;;;;;;;28.50;41.40;;;;;;5095227;28;20345;-61
2020/12/23 02:28:12;;;;;;;;;;;28.50;41.40;;;;;;5094736;28;19920;-61
2020/12/23 02:30:37;;;;;;;;;;;28.50;41.40;;;;;;5095237;28;20003;-62
2020/12/23 02:33:03;;;;;;;;;;;28.40;41.40;;;;;;5094995;28;19912;-61
2020/12/23 02:35:28;;;;;;;;;;;28.40;41.30;;;;;;5094771;28;19953;-61
2020/12/23 02:37:54;;;;;;;;;;;28.40;41.40;;;;;;5088424;28;19928;-61
2020/12/23 02:40:19;;;;;;;;;;;28.40;41.40;;;;;;5086898;28;20331;-61
2020/12/23 02:42:44;;;;;;;;;;;28.40;41.40;;;;;;5094681;28;19908;-61
2020/12/23 02:45:10;;;;;;;;;;;28.40;41.40;;;;;;5094966;28;19908;-61
2020/12/23 02:47:35;;;;;;;;;;;28.40;41.50;;;;;;5093605;28;20308;-61
2020/12/23 02:50:01;;;;;;;;;;;28.40;41.30;;;;;;5094543;28;19912;-61
2020/12/23 02:52:26;;;;;;;;;;;28.40;41.20;;;;;;5093652;28;19912;-61
2020/12/23 02:54:52;;;;;;;;;;;28.40;41.30;;;;;;5078469;28;19912;-61
2020/12/23 02:57:17;;;;;;;;;;;28.40;41.30;;;;;;5094482;28;19916;-61
2020/12/23 02:59:43;;;;;;;;;;;28.40;41.40;;;;;;5094260;28;19912;-61
2020/12/23 03:02:08;;;;;;;;;;;28.40;41.20;;;;;;5094223;28;19912;-61
2020/12/23 03:04:34;;;;;;;;;;;28.50;41.30;;;;;;5094520;28;19915;-61
2020/12/23 03:06:59;;;;;;;;;;;28.40;41.40;;;;;;5094214;28;19957;-61
2020/12/23 03:09:25;;;;;;;;;;;28.40;41.30;;;;;;5092045;28;19908;-61
2020/12/23 03:11:50;;;;;;;;;;;28.40;41.30;;;;;;5074206;28;19943;-61
2020/12/23 03:14:16;;;;;;;;;;;28.40;41.30;;;;;;5074135;28;20263;-61
2020/12/23 03:16:41;;;;;;;;;;;28.40;41.20;;;;;;5073699;28;19917;-61
2020/12/23 03:19:06;;;;;;;;;;;28.40;41.30;;;;;;5073741;28;19958;-61
2020/12/23 03:21:32;;;;;;;;;;;28.40;41.30;;;;;;5073915;28;20282;-61
2020/12/23 03:23:57;;;;;;;;;;;28.40;41.30;;;;;;5086168;28;19919;-61
2020/12/23 03:26:23;;;;;;;;;;;28.40;41.20;;;;;;5091050;28;19928;-61
2020/12/23 03:28:48;;;;;;;;;;;28.40;41.30;;;;;;5092044;28;20370;-61
2020/12/23 03:31:14;;;;;;;;;;;28.40;41.50;;;;;;5093944;28;20363;-61
2020/12/23 03:33:40;;;;;;;;;;;28.40;41.30;;;;;;5093700;28;20008;-61
2020/12/23 03:36:05;;;;;;;;;;;28.40;41.20;;;;;;5093441;28;19995;-61
2020/12/23 03:38:31;;;;;;;;;;;28.40;41.30;;;;;;5092799;28;20316;-61
2020/12/23 03:40:56;;;;;;;;;;;28.40;41.30;;;;;;5073328;28;19915;-61
2020/12/23 03:43:22;;;;;;;;;;;28.40;41.20;;;;;;5089387;28;19919;-61
2020/12/23 03:45:47;;;;;;;;;;;28.40;41.30;;;;;;5093501;28;19912;-61
2020/12/23 03:48:13;;;;;;;;;;;28.40;41.20;;;;;;5093699;28;19923;-61
2020/12/23 03:50:38;;;;;;;;;;;28.30;41.20;;;;;;5093565;28;20417;-61
2020/12/23 03:53:03;;;;;;;;;;;28.40;41.20;;;;;;5093356;28;19908;-61
2020/12/23 03:55:29;;;;;;;;;;;28.40;41.20;;;;;;5093626;28;19998;-61
2020/12/23 03:57:54;;;;;;;;;;;28.40;41.20;;;;;;5077967;28;19920;-61
2020/12/23 04:00:20;;;;;;;;;;;28.30;41.20;;;;;;5073349;28;19947;-61
2020/12/23 04:02:45;;;;;;;;;;;28.30;41.20;;;;;;5073039;28;20294;-61
2020/12/23 04:05:11;;;;;;;;;;;28.30;41.20;;;;;;5078761;28;19912;-61
2020/12/23 04:07:36;;;;;;;;;;;28.30;41.10;;;;;;5090747;28;20008;-61
2020/12/23 04:10:03;;;;;;;;;;;28.30;41.20;;;;;;5072921;28;20560;-61
2020/12/23 04:12:28;;;;;;;;;;;28.30;41.20;;;;;;5072942;28;20030;-61
2020/12/23 04:14:54;;;;;;;;;;;28.30;41.10;;;;;;5073044;28;20052;-61
2020/12/23 04:17:19;;;;;;;;;;;28.40;41.20;;;;;;5073007;28;19927;-61
2020/12/23 04:19:45;;;;;;;;;;;28.40;41.10;;;;;;5077016;28;20007;-61
2020/12/23 04:22:10;;;;;;;;;;;28.30;41.20;;;;;;5092902;28;19962;-61
2020/12/23 04:24:36;;;;;;;;;;;28.30;41.10;;;;;;5093196;28;19915;-61
2020/12/23 04:27:01;;;;;;;;;;;28.30;41.00;;;;;;5092950;28;19973;-61
2020/12/23 04:29:27;;;;;;;;;;;28.30;41.20;;;;;;5093126;28;20443;-61
2020/12/23 04:31:52;;;;;;;;;;;28.30;41.10;;;;;;5093182;28;20382;-61
2020/12/23 04:34:18;;;;;;;;;;;28.30;41.10;;;;;;5092108;28;20264;-61
2020/12/23 04:36:43;;;;;;;;;;;28.40;41.10;;;;;;5086555;28;19932;-60
2020/12/23 04:39:09;;;;;;;;;;;28.30;41.20;;;;;;5072898;28;19941;-61
2020/12/23 04:41:34;;;;;;;;;;;28.30;40.70;;;;;;5072839;28;20282;-61
2020/12/23 04:44:03;;;;;;;;;;;28.30;40.90;;;;;;5072773;28;19954;-60
2020/12/23 04:46:29;;;;;;;;;;;28.30;41.00;;;;;;5072979;28;19994;-61
2020/12/23 04:48:58;;;;;;;;;;;28.30;41.00;;;;;;5074150;28;20279;-61
2020/12/23 04:51:27;;;;;;;;;;;28.30;41.00;;;;;;5065209;28;19924;-68
2020/12/23 04:53:53;;;;;;;;;;;28.30;41.70;;;;;;5056783;28;19909;-60
2020/12/23 04:56:18;;;;;;;;;;;28.10;42.40;;;;;;5073162;28;19942;-59
2020/12/23 04:58:44;;;;;;;;;;;28.10;42.90;;;;;;5093881;28;19924;-61
2020/12/23 05:01:09;;;;;;;;;;;28.10;43.20;;;;;;5092129;28;19956;-61
2020/12/23 05:03:35;;;;;;;;;;;28.10;43.20;;;;;;5095419;28;19908;-61
2020/12/23 05:06:00;;;;;;;;;;;28.20;43.20;;;;;;5093961;28;20397;-60
2020/12/23 05:08:25;;;;;;;;;;;28.20;44.30;;;;;;5081150;28;19912;-61
2020/12/23 05:10:51;;;;;;;;;;;28.30;45.70;;;;;;5096913;28;20410;-52
2020/12/23 05:13:16;;;;;;;;;;;28.30;47.20;;;;;;5077487;28;19913;-52
2020/12/23 05:15:42;;;;;;;;;;;28.20;45.70;;;;;;5095110;28;19912;-51
2020/12/23 05:18:07;;;;;;;;;;;28.00;46.10;;;;;;5092001;28;20374;-58
2020/12/23 05:20:33;;;;;;;;;;;27.90;46.50;;;;;;5087196;28;19917;-58
2020/12/23 05:22:58;;;;;;;;;;;27.80;46.30;;;;;;5088010;28;19908;-57
2020/12/23 05:25:24;;;;;;;;;;;27.80;46.20;;;;;;5095131;28;20685;-61
2020/12/23 05:27:49;;;;;;;;;;;27.60;46.10;;;;;;5081534;28;19924;-60
2020/12/23 05:30:15;;;;;;;;;;;27.60;46.10;;;;;;5076003;28;20294;-61
2020/12/23 05:32:40;;;;;;;;;;;27.70;45.90;;;;;;5088564;28;19919;-59
2020/12/23 05:35:06;;;;;;;;;;;27.70;45.90;;;;;;5079969;28;20317;-60
2020/12/23 05:37:31;;;;;;;;;;;27.70;45.70;;;;;;5079977;28;19935;-62
2020/12/23 05:39:57;;;;;;;;;;;27.70;45.60;;;;;;5077744;28;20007;-60
2020/12/23 05:42:22;;;;;;;;;;;27.70;45.50;;;;;;5086490;28;19913;-60
2020/12/23 05:44:51;;;;;;;;;;;27.70;45.40;;;;;;5076056;28;20396;-60
2020/12/23 05:47:20;;;;;;;;;;;27.70;45.20;;;;;;5075587;28;19909;-63
2020/12/23 05:49:46;;;;;;;;;;;27.70;45.30;;;;;;5078659;28;19969;-62
2020/12/23 05:52:11;;;;;;;;;;;27.70;45.40;;;;;;5084547;28;20338;-62
2020/12/23 05:54:37;;;;;;;;;;;27.70;45.30;;;;;;5076023;28;19912;-61
2020/12/23 05:57:03;;;;;;;;;;;27.70;45.30;;;;;;5085262;28;19921;-61
2020/12/23 05:59:29;;;;;;;;;;;27.70;45.20;;;;;;5068154;28;20449;-62
2020/12/23 06:01:54;;;;;;;;;;;27.70;45.20;;;;;;5091289;28;19954;-63
2020/12/23 06:04:19;;;;;;;;;;;27.70;45.00;;;;;;5075776;28;19912;-62
2020/12/23 06:06:45;;;;;;;;;;;27.70;45.00;;;;;;5079914;28;19917;-62
2020/12/23 06:09:11;;;;;;;;;;;27.70;45.00;;;;;;5089422;28;19916;-63
2020/12/23 06:11:37;;;;;;;;;;;27.70;44.90;;;;;;5089143;28;19920;-63
2020/12/23 06:14:02;;;;;;;;;;;27.70;45.00;;;;;;5075400;28;19908;-63
2020/12/23 06:16:31;;;;;;;;;;;27.70;44.90;;;;;;5079053;28;20282;-62
2020/12/23 06:19:00;;;;;;;;;;;27.70;44.90;;;;;;5076030;28;19950;-63
2020/12/23 06:21:26;;;;;;;;;;;27.70;45.00;;;;;;5054933;28;20308;-63
2020/12/23 06:23:52;;;;;;;;;;;27.70;45.00;;;;;;5093135;28;20042;-63
2020/12/23 06:26:18;;;;;;;;;;;27.70;45.00;;;;;;5087377;28;19908;-62
2020/12/23 06:28:44;;;;;;;;;;;27.70;45.00;;;;;;5082742;28;19931;-63
2020/12/23 06:31:09;;;;;;;;;;;27.60;45.00;;;;;;5092691;28;20404;-63
2020/12/23 06:33:37;;;;;;;;;;;27.60;45.00;;;;;;5093751;28;19909;-63
2020/12/23 06:36:11;;;;;;;;;;;27.70;45.10;;;;;;5081772;28;19985;-63
2020/12/23 06:38:36;;;;;;;;;;;27.60;45.00;;;;;;5081640;28;19929;-63
2020/12/23 06:41:02;;;;;;;;;;;27.60;45.10;;;;;;5074754;28;19912;-63
2020/12/23 06:43:46;;;;;;;;;;;27.60;45.00;;;;;;5087214;28;19919;-63
2020/12/23 06:46:11;;;;;;;;;;;27.60;45.00;;;;;;5086276;28;20386;-63
2020/12/23 06:48:37;;;;;;;;;;;27.60;45.00;;;;;;5070138;28;19935;-64
2020/12/23 06:51:02;;;;;;;;;;;27.60;45.20;;;;;;5069982;28;20282;-63
2020/12/23 06:53:34;;;;;;;;;;;27.60;45.10;;;;;;5054684;28;20388;-63
2020/12/23 06:55:59;;;;;;;;;;;27.60;45.10;;;;;;5073012;28;20496;-63
2020/12/23 06:58:38;;;;;;;;;;;27.60;45.00;;;;;;5075669;28;19928;-64
2020/12/23 07:01:16;;;;;;;;;;;27.60;45.10;;;;;;5074372;28;19947;-65
2020/12/23 07:03:42;;;;;;;;;;;27.60;45.00;;;;;;5074810;28;19916;-64
2020/12/23 07:06:26;;;;;;;;;;;27.60;45.00;;;;;;5087195;28;19966;-64
2020/12/23 07:08:53;;;;;;;;;;;27.60;45.10;;;;;;5082883;28;19921;-64
2020/12/23 07:11:19;;;;;;;;;;;27.60;45.00;;;;;;5091801;28;19908;-64
2020/12/23 07:13:45;;;;;;;;;;;27.60;45.00;;;;;;5070248;28;19917;-64
2020/12/23 07:16:10;;;;;;;;;;;27.60;45.00;;;;;;5054232;28;19915;-64
2020/12/23 07:18:36;;;;;;;;;;;27.60;44.90;;;;;;5072757;28;19924;-64
2020/12/23 07:21:02;;;;;;;;;;;27.60;44.90;;;;;;5074622;28;19908;-64
2020/12/23 07:23:28;;;;;;;;;;;27.60;45.00;;;;;;5076544;28;20366;-64
2020/12/23 07:25:54;;;;;;;;;;;27.60;44.90;;;;;;5074166;28;19913;-64
2020/12/23 07:28:40;;;;;;;;;;;27.60;44.90;;;;;;5093441;28;20057;-64
2020/12/23 07:31:05;;;;;;;;;;;27.60;44.90;;;;;;5091738;28;19912;-64
2020/12/23 07:33:31;;;;;;;;;;;27.60;44.90;;;;;;5091026;28;20006;-64
2020/12/23 07:35:57;;;;;;;;;;;27.50;44.80;;;;;;5074633;28;19943;-64
2020/12/23 07:38:23;;;;;;;;;;;27.60;44.90;;;;;;5077573;28;19984;-64
2020/12/23 07:40:49;;;;;;;;;;;27.60;44.80;;;;;;5073440;28;20421;-64
2020/12/23 07:43:15;;;;;;;;;;;27.50;44.80;;;;;;5073625;28;19916;-64
2020/12/23 07:45:40;;;;;;;;;;;27.50;44.80;;;;;;5076571;28;20003;-64
2020/12/23 07:48:09;;;;;;;;;;;27.50;44.80;;;;;;5074700;28;19919;-64
2020/12/23 07:50:39;;;;;;;;;;;27.50;45.40;;;;;;5073395;28;19931;-64
2020/12/23 07:53:23;;;;;;;;;;;27.60;44.80;;;;;;5092145;28;20370;-64
2020/12/23 07:55:49;;;;;;;;;;;27.60;44.80;;;;;;5093262;28;20282;-64
2020/12/23 07:58:15;;;;;;;;;;;27.50;44.80;;;;;;5079201;28;19926;-64
2020/12/23 08:00:43;;;;;;;;;;;27.50;44.80;;;;;;5093316;28;19916;-64
2020/12/23 08:03:09;;;;;;;;;;;27.50;44.80;;;;;;5091867;28;19918;-64
2020/12/23 08:05:35;;;;;;;;;;;27.50;44.80;;;;;;5085269;28;19912;-64
2020/12/23 08:08:00;;;;;;;;;;;27.50;44.80;;;;;;5053260;28;19909;-64
2020/12/23 08:10:25;;;;;;;;;;;27.50;44.80;;;;;;5053028;28;19909;-64
2020/12/23 08:12:52;;;;;;;;;;;27.50;44.80;;;;;;5087651;28;20015;-64
2020/12/23 08:15:17;;;;;;;;;;;27.50;44.80;;;;;;5091698;28;20364;-64
2020/12/23 08:17:43;;;;;;;;;;;27.50;44.80;;;;;;5079718;28;19928;-64
2020/12/23 08:20:09;;;;;;;;;;;27.50;44.80;;;;;;5073501;28;20375;-65
2020/12/23 08:22:36;;;;;;;;;;;27.50;44.70;;;;;;5077637;28;20012;-64
2020/12/23 08:25:01;;;;;;;;;;;27.50;44.70;;;;;;5073049;28;19931;-65
2020/12/23 08:27:27;;;;;;;;;;;27.50;44.80;;;;;;5082683;28;20362;-64
2020/12/23 08:29:53;;;;;;;;;;;27.50;44.70;;;;;;5086616;28;19917;-65
2020/12/23 08:32:18;;;;;;;;;;;27.50;44.70;;;;;;5085241;28;19916;-64
2020/12/23 08:34:44;;;;;;;;;;;27.50;44.70;;;;;;5092061;28;20308;-64
2020/12/23 08:37:17;;;;;;;;;;;27.50;45.30;;;;;;5090348;28;19920;-64
2020/12/23 08:39:42;;;;;;;;;;;27.50;44.60;;;;;;5083434;28;19967;-64
2020/12/23 08:42:08;;;;;;;;;;;27.50;44.60;;;;;;5082796;28;19967;-65
2020/12/23 08:44:33;;;;;;;;;;;27.50;44.70;;;;;;5074714;28;20366;-64
2020/12/23 08:46:59;;;;;;;;;;;27.60;44.70;;;;;;5090169;28;19938;-64
2020/12/23 08:49:24;;;;;;;;;;;27.50;44.70;;;;;;5093073;28;20272;-64
2020/12/23 08:51:50;;;;;;;;;;;27.50;44.60;;;;;;5082560;28;19912;-64
2020/12/23 08:54:15;;;;;;;;;;;27.50;44.60;;;;;;5072909;28;19908;-64
2020/12/23 08:56:47;;;;;;;;;;;27.50;44.60;;;;;;5076908;28;20365;-64
2020/12/23 08:59:13;;;;;;;;;;;27.50;44.60;;;;;;5091216;28;19944;-64
2020/12/23 09:01:39;;;;;;;;;;;27.50;44.60;;;;;;5091289;28;19916;-64
2020/12/23 09:04:11;;;;;;;;;;;27.50;44.60;;;;;;5091013;28;19935;-65
2020/12/23 09:06:37;;;;;;;;;;;27.50;44.60;;;;;;5091169;28;19962;-64
2020/12/23 09:09:06;;;;;;;;;;;27.50;44.60;;;;;;5092653;28;20346;-64
2020/12/23 09:11:39;;;;;;;;;;;27.50;44.60;;;;;;5086159;28;20489;-64
2020/12/23 09:14:11;;;;;;;;;;;27.50;44.60;;;;;;5072653;28;19952;-64
2020/12/23 09:16:37;;;;;;;;;;;27.50;44.60;;;;;;5076369;28;19916;-64
2020/12/23 09:19:02;;;;;;;;;;;27.50;44.60;;;;;;5075494;28;20263;-64
2020/12/23 09:21:28;;;;;;;;;;;27.50;44.60;;;;;;5078896;28;19916;-64
2020/12/23 09:24:03;;;;;;;;;;;27.50;44.50;;;;;;5091935;28;20734;-64
2020/12/23 09:26:29;;;;;;;;;;;27.50;44.50;;;;;;5090775;28;19924;-64
2020/12/23 09:28:54;;;;;;;;;;;27.50;44.50;;;;;;5090285;28;19916;-64
2020/12/23 09:31:20;;;;;;;;;;;27.50;44.40;;;;;;5085548;28;19916;-64
2020/12/23 09:33:46;;;;;;;;;;;27.50;44.50;;;;;;5072259;28;19951;-64
2020/12/23 09:36:11;;;;;;;;;;;27.50;44.40;;;;;;5083303;28;19908;-64
2020/12/23 09:38:37;;;;;;;;;;;27.50;44.50;;;;;;5094332;28;20358;-64
2020/12/23 09:41:03;;;;;;;;;;;27.50;44.40;;;;;;5077976;28;19998;-64
2020/12/23 09:43:29;;;;;;;;;;;27.50;44.50;;;;;;5094577;28;19924;-64
2020/12/23 09:45:59;;;;;;;;;;;27.50;44.40;;;;;;5094559;28;20015;-64
2020/12/23 09:48:25;;;;;;;;;;;27.50;45.00;;;;;;5083041;28;20285;-64
2020/12/23 09:50:52;;;;;;;;;;;27.50;44.40;;;;;;5095639;28;20406;-64
2020/12/23 09:53:18;;;;;;;;;;;27.50;44.50;;;;;;5095655;28;19908;-64
2020/12/23 09:55:44;;;;;;;;;;;27.50;44.40;;;;;;5095963;28;19912;-64
2020/12/23 09:58:09;;;;;;;;;;;27.50;44.40;;;;;;5078363;28;19962;-64
2020/12/23 10:00:35;;;;;;;;;;;27.50;44.30;;;;;;5084117;28;19915;-64
2020/12/23 10:03:00;;;;;;;;;;;27.50;44.30;;;;;;5075629;28;20398;-64
2020/12/23 10:05:26;;;;;;;;;;;27.50;44.30;;;;;;5075224;28;19931;-64
2020/12/23 10:07:52;;;;;;;;;;;27.50;44.30;;;;;;5076248;28;20050;-64
2020/12/23 10:10:17;;;;;;;;;;;27.50;44.30;;;;;;5080847;28;19948;-64
2020/12/23 10:12:43;;;;;;;;;;;27.50;44.40;;;;;;5079385;28;20266;-64
2020/12/23 10:15:08;;;;;;;;;;;27.50;44.30;;;;;;5075067;28;19920;-64
2020/12/23 10:17:36;;;;;;;;;;;27.50;44.30;;;;;;5083708;28;19920;-64
2020/12/23 10:20:03;;;;;;;;;;;27.50;44.20;;;;;;5095240;28;19912;-64
2020/12/23 10:22:28;;;;;;;;;;;27.60;44.30;;;;;;5095243;28;19935;-64
2020/12/23 10:24:54;;;;;;;;;;;27.50;44.30;;;;;;5094806;28;20337;-64
2020/12/23 10:27:19;;;;;;;;;;;27.50;44.20;;;;;;5089652;28;19924;-64
2020/12/23 10:29:45;;;;;;;;;;;27.50;44.20;;;;;;5095087;28;19931;-64
2020/12/23 10:32:10;;;;;;;;;;;27.50;44.20;;;;;;5080062;28;19959;-64
2020/12/23 10:34:36;;;;;;;;;;;27.50;44.20;;;;;;5089557;28;19916;-64
2020/12/23 10:37:01;;;;;;;;;;;27.50;44.20;;;;;;5092971;28;19920;-64
2020/12/23 10:39:27;;;;;;;;;;;27.50;44.20;;;;;;5082918;28;19966;-64
2020/12/23 10:41:53;;;;;;;;;;;27.50;44.20;;;;;;5074932;28;20281;-64
2020/12/23 10:44:19;;;;;;;;;;;27.50;44.80;;;;;;5074469;28;20353;-64
2020/12/23 10:46:44;;;;;;;;;;;27.50;44.20;;;;;;5074382;28;19959;-64
2020/12/23 10:49:10;;;;;;;;;;;27.50;44.20;;;;;;5074709;28;19908;-64
2020/12/23 10:51:35;;;;;;;;;;;27.50;44.20;;;;;;5086327;28;19912;-64
2020/12/23 10:54:01;;;;;;;;;;;27.50;44.20;;;;;;5075003;28;19916;-64
2020/12/23 10:56:26;;;;;;;;;;;27.50;44.10;;;;;;5079670;28;19916;-63
2020/12/23 10:58:51;;;;;;;;;;;27.50;44.20;;;;;;5088980;28;19927;-63
2020/12/23 11:01:20;;;;;;;;;;;27.50;44.20;;;;;;5086642;28;20251;-64
2020/12/23 11:03:45;;;;;;;;;;;27.50;44.20;;;;;;5094307;28;20390;-64
2020/12/23 11:06:14;;;;;;;;;;;27.50;44.10;;;;;;5088561;28;20025;-64
2020/12/23 11:08:40;;;;;;;;;;;27.50;44.10;;;;;;5081160;28;19916;-64
2020/12/23 11:11:05;;;;;;;;;;;27.50;44.10;;;;;;5074003;28;19908;-64
2020/12/23 11:13:31;;;;;;;;;;;27.50;44.10;;;;;;5074292;28;19917;-64
2020/12/23 11:15:56;;;;;;;;;;;27.50;44.10;;;;;;5075198;28;19944;-64
2020/12/23 11:18:22;;;;;;;;;;;27.50;44.20;;;;;;5093185;28;20362;-64
2020/12/23 11:20:47;;;;;;;;;;;27.50;44.00;;;;;;5085736;28;19912;-64
2020/12/23 11:23:22;;;;;;;;;;;27.50;44.00;;;;;;5086300;28;20417;-64
2020/12/23 11:25:48;;;;;;;;;;;27.50;44.10;;;;;;5073424;28;19918;-64
2020/12/23 11:28:13;;;;;;;;;;;27.50;44.10;;;;;;5074554;28;19928;-64
2020/12/23 11:30:38;;;;;;;;;;;27.50;44.10;;;;;;5074326;28;19912;-64
2020/12/23 11:33:04;;;;;;;;;;;27.50;44.00;;;;;;5073999;28;20011;-64
2020/12/23 11:35:29;;;;;;;;;;;27.60;44.10;;;;;;5075553;28;19920;-64
2020/12/23 11:37:55;;;;;;;;;;;27.50;44.00;;;;;;5093823;28;19916;-64
2020/12/23 11:40:20;;;;;;;;;;;27.50;44.00;;;;;;5077441;28;20374;-64
2020/12/23 11:42:46;;;;;;;;;;;27.50;44.00;;;;;;5089596;28;19912;-63
2020/12/23 11:45:11;;;;;;;;;;;27.60;44.10;;;;;;5093896;28;20011;-64
2020/12/23 11:47:37;;;;;;;;;;;27.60;44.10;;;;;;5078096;28;20370;-64
2020/12/23 11:50:03;;;;;;;;;;;27.60;44.00;;;;;;5073176;28;19912;-63
2020/12/23 11:52:28;;;;;;;;;;;27.50;44.00;;;;;;5086955;28;20362;-64
2020/12/23 11:54:54;;;;;;;;;;;27.50;44.00;;;;;;5082438;28;19917;-63
2020/12/23 11:57:19;;;;;;;;;;;27.60;44.00;;;;;;5073120;28;19920;-64
2020/12/23 11:59:45;;;;;;;;;;;27.50;44.00;;;;;;5073790;28;20282;-64
2020/12/23 12:02:10;;;;;;;;;;;27.50;44.00;;;;;;5073729;28;19916;-64
2020/12/23 12:04:36;;;;;;;;;;;27.50;44.00;;;;;;5072975;28;19954;-63
2020/12/23 12:07:01;;;;;;;;;;;27.60;44.00;;;;;;5075977;28;19958;-64
2020/12/23 12:09:31;;;;;;;;;;;27.60;44.00;;;;;;5073217;28;19916;-64
2020/12/23 12:11:56;;;;;;;;;;;27.50;43.90;;;;;;5074370;28;19920;-64
2020/12/23 12:14:24;;;;;;;;;;;27.50;43.90;;;;;;5072955;28;19913;-64
2020/12/23 12:16:49;;;;;;;;;;;27.50;43.90;;;;;;5077064;28;19959;-64
2020/12/23 12:19:15;;;;;;;;;;;27.50;43.90;;;;;;5072850;28;19968;-64
2020/12/23 12:21:40;;;;;;;;;;;27.50;43.90;;;;;;5082211;28;19939;-64
2020/12/23 12:24:06;;;;;;;;;;;27.50;43.90;;;;;;5093390;28;19915;-64
2020/12/23 12:26:32;;;;;;;;;;;27.50;43.90;;;;;;5092356;28;19924;-63
2020/12/23 12:28:57;;;;;;;;;;;27.50;43.90;;;;;;5081076;28;19920;-64
2020/12/23 12:31:23;;;;;;;;;;;27.50;43.90;;;;;;5072891;28;19912;-64
2020/12/23 12:33:48;;;;;;;;;;;27.50;43.90;;;;;;5073700;28;19938;-64
2020/12/23 12:36:14;;;;;;;;;;;27.50;43.90;;;;;;5076348;28;19916;-64
2020/12/23 12:38:39;;;;;;;;;;;27.50;43.90;;;;;;5090968;28;20283;-64
2020/12/23 12:41:05;;;;;;;;;;;27.50;43.90;;;;;;5074763;28;19920;-64
2020/12/23 12:43:30;;;;;;;;;;;27.50;43.80;;;;;;5093288;28;20020;-64
2020/12/23 12:45:56;;;;;;;;;;;27.50;43.80;;;;;;5091493;28;19953;-64
2020/12/23 12:48:21;;;;;;;;;;;27.50;43.80;;;;;;5072555;28;19915;-64
2020/12/23 12:50:46;;;;;;;;;;;27.50;43.80;;;;;;5072515;28;19912;-64
2020/12/23 12:53:12;;;;;;;;;;;27.50;43.80;;;;;;5082559;28;19912;-64
2020/12/23 12:55:37;;;;;;;;;;;27.50;43.90;;;;;;5093144;28;20350;-64
2020/12/23 12:58:03;;;;;;;;;;;27.50;43.80;;;;;;5087076;28;19927;-64
2020/12/23 13:00:30;;;;;;;;;;;27.50;43.80;;;;;;5077589;28;19916;-64
2020/12/23 13:02:55;;;;;;;;;;;27.50;43.80;;;;;;5088868;28;19920;-64
2020/12/23 13:05:21;;;;;;;;;;;27.50;43.80;;;;;;5073599;28;19912;-64
2020/12/23 13:07:46;;;;;;;;;;;27.50;43.80;;;;;;5088907;28;19912;-64
2020/12/23 13:10:13;;;;;;;;;;;27.50;43.80;;;;;;5094686;28;19912;-64
2020/12/23 13:12:38;;;;;;;;;;;27.50;43.80;;;;;;5081078;28;19919;-64
2020/12/23 13:15:04;;;;;;;;;;;27.50;43.70;;;;;;5077245;28;19920;-64
2020/12/23 13:17:29;;;;;;;;;;;27.50;43.70;;;;;;5079944;28;19964;-64
2020/12/23 13:19:55;;;;;;;;;;;27.50;43.70;;;;;;5076511;28;19909;-64
2020/12/23 13:22:20;;;;;;;;;;;27.50;43.70;;;;;;5076086;28;19915;-64
2020/12/23 13:24:46;;;;;;;;;;;27.60;43.70;;;;;;5088386;28;19938;-64
2020/12/23 13:27:11;;;;;;;;;;;27.60;43.70;;;;;;5091737;28;19981;-64
2020/12/23 13:29:37;;;;;;;;;;;27.50;43.70;;;;;;5076333;28;19912;-64
2020/12/23 13:32:02;;;;;;;;;;;27.60;43.70;;;;;;5085232;28;19943;-64
2020/12/23 13:34:29;;;;;;;;;;;27.50;43.70;;;;;;5096089;28;19961;-66
2020/12/23 13:36:54;;;;;;;;;;;27.50;43.70;;;;;;5077231;28;20321;-64
2020/12/23 13:39:20;;;;;;;;;;;27.50;43.60;;;;;;5075945;28;19912;-64
2020/12/23 13:41:49;;;;;;;;;;;27.50;43.60;;;;;;5084695;28;19912;-64
2020/12/23 13:44:15;;;;;;;;;;;27.50;43.60;;;;;;5095671;28;20405;-64
2020/12/23 13:46:40;;;;;;;;;;;27.60;43.70;;;;;;5088103;28;20031;-64
2020/12/23 13:49:06;;;;;;;;;;;27.50;43.60;;;;;;5075529;28;20370;-63
2020/12/23 13:51:31;;;;;;;;;;;27.50;43.60;;;;;;5090279;28;19916;-64
2020/12/23 13:53:57;;;;;;;;;;;27.50;43.60;;;;;;5090859;28;19912;-64
2020/12/23 13:56:23;;;;;;;;;;;27.50;43.60;;;;;;5095979;28;20374;-64
2020/12/23 13:58:49;;;;;;;;;;;27.50;43.60;;;;;;5084763;28;20019;-64
2020/12/23 14:01:14;;;;;;;;;;;27.60;43.70;;;;;;5076899;28;19962;-64
2020/12/23 14:03:39;;;;;;;;;;;27.50;43.70;;;;;;5095845;28;20286;-64
2020/12/23 14:06:05;;;;;;;;;;;27.50;43.70;;;;;;5094020;28;20285;-64
2020/12/23 14:08:30;;;;;;;;;;;27.50;43.60;;;;;;5088387;28;19913;-64
2020/12/23 14:10:56;;;;;;;;;;;27.50;43.60;;;;;;5075541;28;19908;-64